sensor_id;sensor_type;location;lat;lon;timestamp;temperature;humidity
30385;DHT22;17181;51.002;4.096;2023-07-20T04:50:44;17.10;99.90
30385;DHT22;17181;51.002;4.096;2023-07-20T05:55:52;17.90;99.90
30385;DHT22;17181;51.002;4.096;2023-07-20T05:58:18;18.00;99.90
30385;DHT22;17181;51.002;4.096;2023-07-20T06:00:47;18.10;99.90
30385;DHT22;17181;51.002;4.096;2023-07-20T06:03:13;18.10;99.90
30385;DHT22;17181;51.002;4.096;2023-07-20T06:06:04;18.10;99.90
30385;DHT22;17181;51.002;4.096;2023-07-20T06:08:51;18.20;99.90
30385;DHT22;17181;51.002;4.096;2023-07-20T06:11:18;18.20;99.90
30385;DHT22;17181;51.002;4.096;2023-07-20T06:13:51;18.30;99.90
30385;DHT22;17181;51.002;4.096;2023-07-20T06:16:26;18.40;99.90
30385;DHT22;17181;51.002;4.096;2023-07-20T06:18:53;18.50;99.90
30385;DHT22;17181;51.002;4.096;2023-07-20T06:21:20;18.60;99.90
30385;DHT22;17181;51.002;4.096;2023-07-20T06:23:47;18.60;99.90
30385;DHT22;17181;51.002;4.096;2023-07-20T06:26:22;18.60;99.90
30385;DHT22;17181;51.002;4.096;2023-07-20T06:28:51;18.70;99.90
30385;DHT22;17181;51.002;4.096;2023-07-20T06:31:18;18.70;99.90
30385;DHT22;17181;51.002;4.096;2023-07-20T06:33:45;18.80;99.90
30385;DHT22;17181;51.002;4.096;2023-07-20T06:36:12;18.90;99.90
30385;DHT22;17181;51.002;4.096;2023-07-20T06:39:04;19.00;99.90
30385;DHT22;17181;51.002;4.096;2023-07-20T06:41:31;19.10;99.90
30385;DHT22;17181;51.002;4.096;2023-07-20T06:43:58;19.10;99.90
30385;DHT22;17181;51.002;4.096;2023-07-20T06:46:34;19.20;99.90
30385;DHT22;17181;51.002;4.096;2023-07-20T06:49:01;19.20;99.90
30385;DHT22;17181;51.002;4.096;2023-07-20T06:51:27;19.30;99.90
30385;DHT22;17181;51.002;4.096;2023-07-20T06:53:53;19.30;99.90
30385;DHT22;17181;51.002;4.096;2023-07-20T06:56:19;19.40;99.90
30385;DHT22;17181;51.002;4.096;2023-07-20T06:58:45;19.50;99.90
30385;DHT22;17181;51.002;4.096;2023-07-20T07:01:13;19.60;99.90
30385;DHT22;17181;51.002;4.096;2023-07-20T07:03:40;19.60;99.90
30385;DHT22;17181;51.002;4.096;2023-07-20T07:06:06;19.70;99.90
30385;DHT22;17181;51.002;4.096;2023-07-20T07:08:33;19.80;99.90
30385;DHT22;17181;51.002;4.096;2023-07-20T07:11:01;19.70;99.90
30385;DHT22;17181;51.002;4.096;2023-07-20T07:13:27;19.80;99.90
30385;DHT22;17181;51.002;4.096;2023-07-20T07:15:54;19.90;99.90
30385;DHT22;17181;51.002;4.096;2023-07-20T07:18:26;19.90;99.90
30385;DHT22;17181;51.002;4.096;2023-07-20T07:20:55;20.00;99.90
30385;DHT22;17181;51.002;4.096;2023-07-20T07:23:23;20.00;99.90
30385;DHT22;17181;51.002;4.096;2023-07-20T07:25:53;20.10;99.90
30385;DHT22;17181;51.002;4.096;2023-07-20T07:28:21;20.00;99.90
30385;DHT22;17181;51.002;4.096;2023-07-20T07:30:48;20.00;99.90
30385;DHT22;17181;51.002;4.096;2023-07-20T07:33:14;20.10;99.90
30385;DHT22;17181;51.002;4.096;2023-07-20T07:35:43;20.10;99.90
30385;DHT22;17181;51.002;4.096;2023-07-20T07:38:36;20.20;99.90
30385;DHT22;17181;51.002;4.096;2023-07-20T07:41:26;20.30;99.90
30385;DHT22;17181;51.002;4.096;2023-07-20T07:44:04;20.10;99.90
30385;DHT22;17181;51.002;4.096;2023-07-20T07:46:33;20.30;99.90
30385;DHT22;17181;51.002;4.096;2023-07-20T07:49:00;20.30;99.90
30385;DHT22;17181;51.002;4.096;2023-07-20T07:51:26;20.30;99.90
30385;DHT22;17181;51.002;4.096;2023-07-20T07:53:55;20.40;99.90
30385;DHT22;17181;51.002;4.096;2023-07-20T07:56:22;20.40;99.90
30385;DHT22;17181;51.002;4.096;2023-07-20T07:58:51;20.20;99.90
30385;DHT22;17181;51.002;4.096;2023-07-20T08:01:17;20.30;99.90
30385;DHT22;17181;51.002;4.096;2023-07-20T08:03:45;20.30;99.90
30385;DHT22;17181;51.002;4.096;2023-07-20T08:06:16;20.40;99.90
30385;DHT22;17181;51.002;4.096;2023-07-20T08:08:42;20.40;99.90
30385;DHT22;17181;51.002;4.096;2023-07-20T08:11:08;20.40;99.90
30385;DHT22;17181;51.002;4.096;2023-07-20T08:13:35;20.50;99.90
30385;DHT22;17181;51.002;4.096;2023-07-20T08:16:01;20.40;99.90
30385;DHT22;17181;51.002;4.096;2023-07-20T08:18:30;20.40;99.90
30385;DHT22;17181;51.002;4.096;2023-07-20T08:20:57;20.50;99.90
30385;DHT22;17181;51.002;4.096;2023-07-20T08:23:23;20.40;99.90
30385;DHT22;17181;51.002;4.096;2023-07-20T08:25:49;20.70;99.90
30385;DHT22;17181;51.002;4.096;2023-07-20T08:28:16;20.80;99.90
30385;DHT22;17181;51.002;4.096;2023-07-20T08:30:45;20.90;99.90
30385;DHT22;17181;51.002;4.096;2023-07-20T08:33:13;21.00;99.90
30385;DHT22;17181;51.002;4.096;2023-07-20T08:35:40;21.20;99.90
30385;DHT22;17181;51.002;4.096;2023-07-20T08:38:06;21.20;99.90
30385;DHT22;17181;51.002;4.096;2023-07-20T08:40:38;21.50;99.90
30385;DHT22;17181;51.002;4.096;2023-07-20T08:43:05;21.50;99.90
30385;DHT22;17181;51.002;4.096;2023-07-20T08:45:33;21.50;99.90
30385;DHT22;17181;51.002;4.096;2023-07-20T08:48:05;21.50;99.90
30385;DHT22;17181;51.002;4.096;2023-07-20T08:50:32;21.50;99.90
30385;DHT22;17181;51.002;4.096;2023-07-20T08:52:59;21.50;99.60
30385;DHT22;17181;51.002;4.096;2023-07-20T08:55:26;21.60;99.50
30385;DHT22;17181;51.002;4.096;2023-07-20T08:57:57;21.60;99.00
30385;DHT22;17181;51.002;4.096;2023-07-20T09:00:25;21.60;98.60
30385;DHT22;17181;51.002;4.096;2023-07-20T09:02:55;21.60;98.60
30385;DHT22;17181;51.002;4.096;2023-07-20T09:05:24;21.60;98.40
30385;DHT22;17181;51.002;4.096;2023-07-20T09:07:52;21.70;98.30
30385;DHT22;17181;51.002;4.096;2023-07-20T09:10:22;21.70;98.00
30385;DHT22;17181;51.002;4.096;2023-07-20T09:12:48;21.80;98.00
30385;DHT22;17181;51.002;4.096;2023-07-20T09:15:14;21.90;97.80
30385;DHT22;17181;51.002;4.096;2023-07-20T09:17:46;22.00;97.20
30385;DHT22;17181;51.002;4.096;2023-07-20T09:20:16;22.10;96.80
30385;DHT22;17181;51.002;4.096;2023-07-20T09:22:43;22.10;97.20
30385;DHT22;17181;51.002;4.096;2023-07-20T09:25:17;22.20;96.80
30385;DHT22;17181;51.002;4.096;2023-07-20T09:27:45;22.30;96.90
30385;DHT22;17181;51.002;4.096;2023-07-20T09:30:13;22.40;96.40
30385;DHT22;17181;51.002;4.096;2023-07-20T09:32:45;22.50;96.10
30385;DHT22;17181;51.002;4.096;2023-07-20T09:35:16;22.60;94.80
30385;DHT22;17181;51.002;4.096;2023-07-20T09:40:21;22.60;93.70
30385;DHT22;17181;51.002;4.096;2023-07-20T09:42:47;22.70;94.10
30385;DHT22;17181;51.002;4.096;2023-07-20T09:45:13;22.80;94.20
30385;DHT22;17181;51.002;4.096;2023-07-20T09:47:40;22.90;93.80
30385;DHT22;17181;51.002;4.096;2023-07-20T09:50:07;22.90;93.60
30385;DHT22;17181;51.002;4.096;2023-07-20T09:52:40;23.00;93.50
30385;DHT22;17181;51.002;4.096;2023-07-20T09:58:09;23.10;92.70
30385;DHT22;17181;51.002;4.096;2023-07-20T10:00:37;23.20;92.70
30385;DHT22;17181;51.002;4.096;2023-07-20T10:03:04;23.30;92.70
30385;DHT22;17181;51.002;4.096;2023-07-20T10:05:33;23.40;91.70
30385;DHT22;17181;51.002;4.096;2023-07-20T10:08:03;23.50;91.40
30385;DHT22;17181;51.002;4.096;2023-07-20T10:10:33;23.50;91.20
30385;DHT22;17181;51.002;4.096;2023-07-20T10:13:00;23.40;91.10
30385;DHT22;17181;51.002;4.096;2023-07-20T10:15:36;23.50;91.10
30385;DHT22;17181;51.002;4.096;2023-07-20T10:20:41;23.50;90.80
30385;DHT22;17181;51.002;4.096;2023-07-20T10:23:08;23.50;90.80
30385;DHT22;17181;51.002;4.096;2023-07-20T10:25:34;23.60;90.10
30385;DHT22;17181;51.002;4.096;2023-07-20T10:28:05;23.60;90.30
30385;DHT22;17181;51.002;4.096;2023-07-20T10:30:37;23.60;90.10
30385;DHT22;17181;51.002;4.096;2023-07-20T10:33:04;23.60;90.10
30385;DHT22;17181;51.002;4.096;2023-07-20T10:35:31;23.70;89.60
30385;DHT22;17181;51.002;4.096;2023-07-20T10:38:01;23.70;89.90
30385;DHT22;17181;51.002;4.096;2023-07-20T10:40:32;23.90;89.50
30385;DHT22;17181;51.002;4.096;2023-07-20T10:43:03;24.00;89.40
30385;DHT22;17181;51.002;4.096;2023-07-20T10:45:52;24.10;89.00
30385;DHT22;17181;51.002;4.096;2023-07-20T10:48:20;24.10;88.50
30385;DHT22;17181;51.002;4.096;2023-07-20T10:51:13;24.20;87.40
30385;DHT22;17181;51.002;4.096;2023-07-20T10:53:42;24.20;87.30
30385;DHT22;17181;51.002;4.096;2023-07-20T10:56:15;24.30;86.90
30385;DHT22;17181;51.002;4.096;2023-07-20T10:58:41;24.30;85.60
30385;DHT22;17181;51.002;4.096;2023-07-20T11:01:08;24.30;85.00
30385;DHT22;17181;51.002;4.096;2023-07-20T11:03:36;24.20;83.60
30385;DHT22;17181;51.002;4.096;2023-07-20T11:08:56;24.10;84.10
30385;DHT22;17181;51.002;4.096;2023-07-20T11:14:11;24.20;83.70
30385;DHT22;17181;51.002;4.096;2023-07-20T11:16:47;24.20;82.50
30385;DHT22;17181;51.002;4.096;2023-07-20T11:19:24;24.20;82.30
30385;DHT22;17181;51.002;4.096;2023-07-20T11:21:53;24.20;80.90
30385;DHT22;17181;51.002;4.096;2023-07-20T11:24:19;24.20;81.40
30385;DHT22;17181;51.002;4.096;2023-07-20T11:26:49;24.20;81.80
30385;DHT22;17181;51.002;4.096;2023-07-20T11:29:20;24.20;81.50
30385;DHT22;17181;51.002;4.096;2023-07-20T11:31:47;24.40;82.00
30385;DHT22;17181;51.002;4.096;2023-07-20T11:34:15;24.40;82.00
30385;DHT22;17181;51.002;4.096;2023-07-20T11:36:44;24.50;82.30
30385;DHT22;17181;51.002;4.096;2023-07-20T11:39:11;24.60;82.20
30385;DHT22;17181;51.002;4.096;2023-07-20T11:41:38;24.70;82.20
30385;DHT22;17181;51.002;4.096;2023-07-20T11:44:06;24.80;81.70
30385;DHT22;17181;51.002;4.096;2023-07-20T11:46:33;24.90;81.30
30385;DHT22;17181;51.002;4.096;2023-07-20T11:49:00;24.90;80.50
30385;DHT22;17181;51.002;4.096;2023-07-20T11:51:28;24.90;80.00
30385;DHT22;17181;51.002;4.096;2023-07-20T11:53:54;24.90;78.80
30385;DHT22;17181;51.002;4.096;2023-07-20T11:56:22;24.80;77.70
30385;DHT22;17181;51.002;4.096;2023-07-20T11:58:48;24.70;76.50
30385;DHT22;17181;51.002;4.096;2023-07-20T12:01:14;24.60;76.90
30385;DHT22;17181;51.002;4.096;2023-07-20T12:03:42;24.50;77.60
30385;DHT22;17181;51.002;4.096;2023-07-20T12:06:09;24.40;77.60
30385;DHT22;17181;51.002;4.096;2023-07-20T12:08:37;24.40;77.40
30385;DHT22;17181;51.002;4.096;2023-07-20T12:11:03;24.40;77.40
30385;DHT22;17181;51.002;4.096;2023-07-20T12:13:42;24.30;77.00
30385;DHT22;17181;51.002;4.096;2023-07-20T12:16:13;24.20;76.90
30385;DHT22;17181;51.002;4.096;2023-07-20T12:18:40;24.20;77.00
30385;DHT22;17181;51.002;4.096;2023-07-20T12:21:07;24.10;76.60
30385;DHT22;17181;51.002;4.096;2023-07-20T12:23:39;24.00;76.70
30385;DHT22;17181;51.002;4.096;2023-07-20T12:26:10;23.80;76.60
30385;DHT22;17181;51.002;4.096;2023-07-20T12:28:39;23.70;76.90
30385;DHT22;17181;51.002;4.096;2023-07-20T12:31:09;23.60;77.40
30385;DHT22;17181;51.002;4.096;2023-07-20T12:33:36;23.60;77.70
30385;DHT22;17181;51.002;4.096;2023-07-20T12:36:03;23.50;77.90
30385;DHT22;17181;51.002;4.096;2023-07-20T12:38:28;23.50;78.40
30385;DHT22;17181;51.002;4.096;2023-07-20T12:40:56;23.40;78.60
30385;DHT22;17181;51.002;4.096;2023-07-20T12:43:22;23.30;78.50
30385;DHT22;17181;51.002;4.096;2023-07-20T12:45:48;23.20;78.70
30385;DHT22;17181;51.002;4.096;2023-07-20T12:48:14;23.10;79.40
30385;DHT22;17181;51.002;4.096;2023-07-20T12:50:40;22.90;80.20
30385;DHT22;17181;51.002;4.096;2023-07-20T12:53:06;22.70;81.80
30385;DHT22;17181;51.002;4.096;2023-07-20T12:55:32;22.40;82.90
30385;DHT22;17181;51.002;4.096;2023-07-20T12:57:58;22.10;83.90
30385;DHT22;17181;51.002;4.096;2023-07-20T13:00:23;22.00;84.60
30385;DHT22;17181;51.002;4.096;2023-07-20T13:02:51;21.90;84.90
30385;DHT22;17181;51.002;4.096;2023-07-20T13:05:17;21.90;85.50
30385;DHT22;17181;51.002;4.096;2023-07-20T13:07:43;21.90;85.80
30385;DHT22;17181;51.002;4.096;2023-07-20T13:10:10;22.00;86.10
30385;DHT22;17181;51.002;4.096;2023-07-20T13:12:37;22.00;87.00
30385;DHT22;17181;51.002;4.096;2023-07-20T13:15:08;22.00;87.50
30385;DHT22;17181;51.002;4.096;2023-07-20T13:17:38;22.00;88.30
30385;DHT22;17181;51.002;4.096;2023-07-20T13:20:09;21.90;88.80
30385;DHT22;17181;51.002;4.096;2023-07-20T13:22:37;21.80;90.00
30385;DHT22;17181;51.002;4.096;2023-07-20T13:25:03;21.70;89.80
30385;DHT22;17181;51.002;4.096;2023-07-20T13:27:29;21.60;90.30
30385;DHT22;17181;51.002;4.096;2023-07-20T13:29:57;21.50;90.60
30385;DHT22;17181;51.002;4.096;2023-07-20T13:32:23;21.50;90.70
30385;DHT22;17181;51.002;4.096;2023-07-20T13:34:49;21.60;90.70
30385;DHT22;17181;51.002;4.096;2023-07-20T13:37:15;21.70;90.70
30385;DHT22;17181;51.002;4.096;2023-07-20T13:39:41;21.90;90.70
30385;DHT22;17181;51.002;4.096;2023-07-20T13:42:08;22.00;90.50
30385;DHT22;17181;51.002;4.096;2023-07-20T13:44:36;22.20;90.50
30385;DHT22;17181;51.002;4.096;2023-07-20T13:47:03;22.40;90.60
30385;DHT22;17181;51.002;4.096;2023-07-20T13:49:32;22.70;90.40
30385;DHT22;17181;51.002;4.096;2023-07-20T13:51:58;23.20;90.70
30385;DHT22;17181;51.002;4.096;2023-07-20T13:54:25;24.00;90.60
30385;DHT22;17181;51.002;4.096;2023-07-20T13:56:51;24.90;90.30
30385;DHT22;17181;51.002;4.096;2023-07-20T13:59:17;25.90;89.90
30385;DHT22;17181;51.002;4.096;2023-07-20T14:01:43;26.80;88.30
30385;DHT22;17181;51.002;4.096;2023-07-20T14:04:09;27.50;86.30
30385;DHT22;17181;51.002;4.096;2023-07-20T14:06:36;28.10;84.70
30385;DHT22;17181;51.002;4.096;2023-07-20T14:09:03;28.70;83.00
30385;DHT22;17181;51.002;4.096;2023-07-20T14:11:29;29.30;80.80
30385;DHT22;17181;51.002;4.096;2023-07-20T14:13:55;29.60;78.50
30385;DHT22;17181;51.002;4.096;2023-07-20T14:16:21;29.60;76.00
30385;DHT22;17181;51.002;4.096;2023-07-20T14:18:48;29.40;74.20
30385;DHT22;17181;51.002;4.096;2023-07-20T14:21:15;29.10;73.30
30385;DHT22;17181;51.002;4.096;2023-07-20T14:23:41;28.80;72.70
30385;DHT22;17181;51.002;4.096;2023-07-20T14:26:07;28.40;72.30
30385;DHT22;17181;51.002;4.096;2023-07-20T14:28:35;28.00;71.70
30385;DHT22;17181;51.002;4.096;2023-07-20T14:31:01;27.60;71.60
30385;DHT22;17181;51.002;4.096;2023-07-20T14:33:26;27.30;71.60
30385;DHT22;17181;51.002;4.096;2023-07-20T14:35:52;27.00;71.40
30385;DHT22;17181;51.002;4.096;2023-07-20T14:38:18;26.70;71.40
30385;DHT22;17181;51.002;4.096;2023-07-20T14:40:44;26.50;71.40
30385;DHT22;17181;51.002;4.096;2023-07-20T14:43:11;26.20;71.20
30385;DHT22;17181;51.002;4.096;2023-07-20T14:45:37;26.00;71.40
30385;DHT22;17181;51.002;4.096;2023-07-20T14:48:03;25.80;71.80
30385;DHT22;17181;51.002;4.096;2023-07-20T14:50:29;25.50;72.00
30385;DHT22;17181;51.002;4.096;2023-07-20T14:52:55;25.30;72.30
30385;DHT22;17181;51.002;4.096;2023-07-20T14:55:21;25.00;72.40
30385;DHT22;17181;51.002;4.096;2023-07-20T14:57:48;24.80;72.60
30385;DHT22;17181;51.002;4.096;2023-07-20T15:00:14;24.40;74.50
30385;DHT22;17181;51.002;4.096;2023-07-20T15:02:40;23.80;78.20
30385;DHT22;17181;51.002;4.096;2023-07-20T15:05:10;22.90;82.40
30385;DHT22;17181;51.002;4.096;2023-07-20T15:07:36;21.80;86.30
30385;DHT22;17181;51.002;4.096;2023-07-20T15:10:06;21.00;89.90
30385;DHT22;17181;51.002;4.096;2023-07-20T15:12:32;20.40;91.40
30385;DHT22;17181;51.002;4.096;2023-07-20T15:15:20;19.90;92.70
30385;DHT22;17181;51.002;4.096;2023-07-20T15:17:47;19.50;94.00
30385;DHT22;17181;51.002;4.096;2023-07-20T15:20:15;19.10;95.00
30385;DHT22;17181;51.002;4.096;2023-07-20T15:22:42;18.90;95.30
30385;DHT22;17181;51.002;4.096;2023-07-20T15:25:11;18.70;96.30
30385;DHT22;17181;51.002;4.096;2023-07-20T15:27:40;18.50;96.70
30385;DHT22;17181;51.002;4.096;2023-07-20T15:30:08;18.40;97.30
30385;DHT22;17181;51.002;4.096;2023-07-20T15:32:34;18.30;97.30
30385;DHT22;17181;51.002;4.096;2023-07-20T15:35:00;18.30;97.80
30385;DHT22;17181;51.002;4.096;2023-07-20T15:37:28;18.30;98.00
30385;DHT22;17181;51.002;4.096;2023-07-20T15:39:54;18.20;98.40
30385;DHT22;17181;51.002;4.096;2023-07-20T15:42:25;18.20;98.30
30385;DHT22;17181;51.002;4.096;2023-07-20T15:44:51;18.40;98.40
30385;DHT22;17181;51.002;4.096;2023-07-20T15:47:18;18.30;98.40
30385;DHT22;17181;51.002;4.096;2023-07-20T15:49:44;18.30;98.40
30385;DHT22;17181;51.002;4.096;2023-07-20T15:52:10;18.30;98.40
30385;DHT22;17181;51.002;4.096;2023-07-20T15:54:38;18.30;98.40
30385;DHT22;17181;51.002;4.096;2023-07-20T15:57:05;18.30;98.50
30385;DHT22;17181;51.002;4.096;2023-07-20T15:59:31;18.30;98.50
30385;DHT22;17181;51.002;4.096;2023-07-20T16:01:57;18.40;98.60
30385;DHT22;17181;51.002;4.096;2023-07-20T16:04:23;18.40;98.70
30385;DHT22;17181;51.002;4.096;2023-07-20T16:06:48;18.40;98.90
30385;DHT22;17181;51.002;4.096;2023-07-20T16:09:14;18.50;99.10
30385;DHT22;17181;51.002;4.096;2023-07-20T16:11:40;18.60;99.20
30385;DHT22;17181;51.002;4.096;2023-07-20T16:14:06;18.70;99.40
30385;DHT22;17181;51.002;4.096;2023-07-20T16:16:34;18.70;99.50
30385;DHT22;17181;51.002;4.096;2023-07-20T16:19:00;18.80;99.60
30385;DHT22;17181;51.002;4.096;2023-07-20T16:21:26;18.80;99.70
30385;DHT22;17181;51.002;4.096;2023-07-20T16:23:52;18.90;99.80
30385;DHT22;17181;51.002;4.096;2023-07-20T16:26:18;19.00;99.90
30385;DHT22;17181;51.002;4.096;2023-07-20T16:28:43;19.10;99.90
30385;DHT22;17181;51.002;4.096;2023-07-20T16:31:15;19.20;99.90
30385;DHT22;17181;51.002;4.096;2023-07-20T16:33:42;19.30;99.90
30385;DHT22;17181;51.002;4.096;2023-07-20T16:36:15;19.40;99.90
30385;DHT22;17181;51.002;4.096;2023-07-20T16:38:42;19.60;99.90
30385;DHT22;17181;51.002;4.096;2023-07-20T16:41:09;19.90;99.90
30385;DHT22;17181;51.002;4.096;2023-07-20T16:43:36;20.40;99.90
30385;DHT22;17181;51.002;4.096;2023-07-20T16:46:04;20.80;99.90
30385;DHT22;17181;51.002;4.096;2023-07-20T16:48:30;21.30;99.90
30385;DHT22;17181;51.002;4.096;2023-07-20T16:50:56;21.70;99.90
30385;DHT22;17181;51.002;4.096;2023-07-20T16:53:23;22.10;99.90
30385;DHT22;17181;51.002;4.096;2023-07-20T16:55:50;22.50;99.50
30385;DHT22;17181;51.002;4.096;2023-07-20T16:58:22;22.80;99.10
30385;DHT22;17181;51.002;4.096;2023-07-20T17:00:48;23.00;98.70
30385;DHT22;17181;51.002;4.096;2023-07-20T17:03:15;23.10;98.40
30385;DHT22;17181;51.002;4.096;2023-07-20T17:05:45;23.50;98.00
30385;DHT22;17181;51.002;4.096;2023-07-20T17:08:11;23.60;97.70
30385;DHT22;17181;51.002;4.096;2023-07-20T17:10:43;23.80;97.60
30385;DHT22;17181;51.002;4.096;2023-07-20T17:13:13;23.90;97.40
30385;DHT22;17181;51.002;4.096;2023-07-20T17:15:57;24.00;97.20
30385;DHT22;17181;51.002;4.096;2023-07-20T17:18:23;24.20;97.00
30385;DHT22;17181;51.002;4.096;2023-07-20T17:20:49;24.20;96.70
30385;DHT22;17181;51.002;4.096;2023-07-20T17:23:16;24.40;96.30
30385;DHT22;17181;51.002;4.096;2023-07-20T17:25:46;24.50;96.00
30385;DHT22;17181;51.002;4.096;2023-07-20T17:28:13;24.70;95.30
30385;DHT22;17181;51.002;4.096;2023-07-20T17:30:40;24.70;94.80
30385;DHT22;17181;51.002;4.096;2023-07-20T17:33:07;24.90;94.40
30385;DHT22;17181;51.002;4.096;2023-07-20T17:35:35;24.80;94.10
30385;DHT22;17181;51.002;4.096;2023-07-20T17:38:01;24.80;93.70
30385;DHT22;17181;51.002;4.096;2023-07-20T17:40:28;24.60;93.50
30385;DHT22;17181;51.002;4.096;2023-07-20T17:42:55;24.40;93.40
30385;DHT22;17181;51.002;4.096;2023-07-20T17:45:21;24.20;93.30
30385;DHT22;17181;51.002;4.096;2023-07-20T17:47:48;24.10;93.20
30385;DHT22;17181;51.002;4.096;2023-07-20T17:50:14;24.00;93.10
30385;DHT22;17181;51.002;4.096;2023-07-20T17:52:42;23.90;92.90
30385;DHT22;17181;51.002;4.096;2023-07-20T17:55:08;23.80;92.80
30385;DHT22;17181;51.002;4.096;2023-07-20T17:57:34;23.60;92.60
30385;DHT22;17181;51.002;4.096;2023-07-20T18:00:00;23.50;92.60
30385;DHT22;17181;51.002;4.096;2023-07-20T18:02:26;23.50;92.50
30385;DHT22;17181;51.002;4.096;2023-07-20T18:04:53;23.20;92.30
30385;DHT22;17181;51.002;4.096;2023-07-20T18:07:19;23.10;92.30
30385;DHT22;17181;51.002;4.096;2023-07-20T18:09:46;23.00;92.30
30385;DHT22;17181;51.002;4.096;2023-07-20T18:12:12;22.90;92.30
30385;DHT22;17181;51.002;4.096;2023-07-20T18:14:37;22.80;92.30
30385;DHT22;17181;51.002;4.096;2023-07-20T18:17:03;22.70;92.30
30385;DHT22;17181;51.002;4.096;2023-07-20T18:19:29;22.60;92.30
30385;DHT22;17181;51.002;4.096;2023-07-20T18:21:55;22.60;92.30
30385;DHT22;17181;51.002;4.096;2023-07-20T18:24:21;22.50;92.30
30385;DHT22;17181;51.002;4.096;2023-07-20T18:26:47;22.50;92.40
30385;DHT22;17181;51.002;4.096;2023-07-20T18:29:13;22.40;92.40
30385;DHT22;17181;51.002;4.096;2023-07-20T18:31:41;22.40;92.40
30385;DHT22;17181;51.002;4.096;2023-07-20T18:34:07;22.30;92.50
30385;DHT22;17181;51.002;4.096;2023-07-20T18:36:33;22.30;92.60
30385;DHT22;17181;51.002;4.096;2023-07-20T18:38:59;22.20;92.70
30385;DHT22;17181;51.002;4.096;2023-07-20T18:41:25;22.10;92.80
30385;DHT22;17181;51.002;4.096;2023-07-20T18:43:52;22.10;92.80
30385;DHT22;17181;51.002;4.096;2023-07-20T18:46:18;22.00;92.90
30385;DHT22;17181;51.002;4.096;2023-07-20T18:48:47;21.90;93.00
30385;DHT22;17181;51.002;4.096;2023-07-20T18:51:13;21.90;93.10
30385;DHT22;17181;51.002;4.096;2023-07-20T18:53:41;21.70;93.10
30385;DHT22;17181;51.002;4.096;2023-07-20T18:56:08;21.70;93.10
30385;DHT22;17181;51.002;4.096;2023-07-20T18:58:34;21.70;93.20
30385;DHT22;17181;51.002;4.096;2023-07-20T19:01:00;21.60;93.30
30385;DHT22;17181;51.002;4.096;2023-07-20T19:03:26;21.60;93.30
30385;DHT22;17181;51.002;4.096;2023-07-20T19:05:52;21.50;93.30
30385;DHT22;17181;51.002;4.096;2023-07-20T19:08:17;21.40;93.30
30385;DHT22;17181;51.002;4.096;2023-07-20T19:10:43;21.40;93.50
30385;DHT22;17181;51.002;4.096;2023-07-20T19:13:09;21.30;93.50
30385;DHT22;17181;51.002;4.096;2023-07-20T19:15:35;21.20;93.60
30385;DHT22;17181;51.002;4.096;2023-07-20T19:18:01;21.10;93.70
30385;DHT22;17181;51.002;4.096;2023-07-20T19:20:27;21.00;93.80
30385;DHT22;17181;51.002;4.096;2023-07-20T19:22:52;21.00;94.00
30385;DHT22;17181;51.002;4.096;2023-07-20T19:25:18;20.90;94.10
30385;DHT22;17181;51.002;4.096;2023-07-20T19:27:44;20.80;94.30
30385;DHT22;17181;51.002;4.096;2023-07-20T19:30:10;20.70;94.40
30385;DHT22;17181;51.002;4.096;2023-07-20T19:32:36;20.70;94.40
30385;DHT22;17181;51.002;4.096;2023-07-20T19:35:02;20.70;94.50
30385;DHT22;17181;51.002;4.096;2023-07-20T19:37:28;20.60;94.60
30385;DHT22;17181;51.002;4.096;2023-07-20T19:39:54;20.50;94.60
30385;DHT22;17181;51.002;4.096;2023-07-20T19:42:21;20.40;94.70
30385;DHT22;17181;51.002;4.096;2023-07-20T19:44:47;20.40;94.80
30385;DHT22;17181;51.002;4.096;2023-07-20T19:47:12;20.30;94.80
30385;DHT22;17181;51.002;4.096;2023-07-20T19:49:38;20.20;94.80
30385;DHT22;17181;51.002;4.096;2023-07-20T19:52:04;20.10;94.80
30385;DHT22;17181;51.002;4.096;2023-07-20T19:54:30;20.00;94.90
30385;DHT22;17181;51.002;4.096;2023-07-20T19:56:56;19.90;95.00
30385;DHT22;17181;51.002;4.096;2023-07-20T19:59:21;19.80;95.00
30385;DHT22;17181;51.002;4.096;2023-07-20T20:01:49;19.70;95.00
30385;DHT22;17181;51.002;4.096;2023-07-20T20:04:14;19.60;95.00
30385;DHT22;17181;51.002;4.096;2023-07-20T20:06:48;19.40;95.10
30385;DHT22;17181;51.002;4.096;2023-07-20T20:09:15;19.40;95.30
30385;DHT22;17181;51.002;4.096;2023-07-20T20:11:43;19.30;95.50
30385;DHT22;17181;51.002;4.096;2023-07-20T20:14:09;19.20;95.60
30385;DHT22;17181;51.002;4.096;2023-07-20T20:16:36;19.20;95.70
30385;DHT22;17181;51.002;4.096;2023-07-20T20:19:02;19.20;95.80
30385;DHT22;17181;51.002;4.096;2023-07-20T20:21:28;19.10;95.90
30385;DHT22;17181;51.002;4.096;2023-07-20T20:23:54;19.00;95.90
30385;DHT22;17181;51.002;4.096;2023-07-20T20:26:20;19.00;96.00
30385;DHT22;17181;51.002;4.096;2023-07-20T20:28:46;18.90;95.90
30385;DHT22;17181;51.002;4.096;2023-07-20T20:31:11;18.80;95.90
30385;DHT22;17181;51.002;4.096;2023-07-20T20:33:37;18.70;95.90
30385;DHT22;17181;51.002;4.096;2023-07-20T20:36:03;18.60;96.10
30385;DHT22;17181;51.002;4.096;2023-07-20T20:38:31;18.50;96.20
30385;DHT22;17181;51.002;4.096;2023-07-20T20:40:56;18.50;96.30
30385;DHT22;17181;51.002;4.096;2023-07-20T20:43:23;18.40;96.40
30385;DHT22;17181;51.002;4.096;2023-07-20T20:45:50;18.40;96.50
30385;DHT22;17181;51.002;4.096;2023-07-20T20:48:16;18.40;96.50
30385;DHT22;17181;51.002;4.096;2023-07-20T20:50:41;18.30;96.50
30385;DHT22;17181;51.002;4.096;2023-07-20T20:53:14;18.20;96.60
30385;DHT22;17181;51.002;4.096;2023-07-20T20:55:40;18.20;96.70
30385;DHT22;17181;51.002;4.096;2023-07-20T20:58:06;18.20;96.80
30385;DHT22;17181;51.002;4.096;2023-07-20T21:00:33;18.10;97.10
30385;DHT22;17181;51.002;4.096;2023-07-20T21:02:59;18.10;96.90
30385;DHT22;17181;51.002;4.096;2023-07-20T21:05:25;18.00;97.00
30385;DHT22;17181;51.002;4.096;2023-07-20T21:07:52;18.00;97.10
30385;DHT22;17181;51.002;4.096;2023-07-20T21:10:18;18.00;97.20
30385;DHT22;17181;51.002;4.096;2023-07-20T21:12:45;17.90;97.30
30385;DHT22;17181;51.002;4.096;2023-07-20T21:15:11;17.90;97.40
30385;DHT22;17181;51.002;4.096;2023-07-20T21:17:38;17.90;97.50
30385;DHT22;17181;51.002;4.096;2023-07-20T21:20:05;17.80;97.80
30385;DHT22;17181;51.002;4.096;2023-07-20T21:22:34;17.70;97.50
30385;DHT22;17181;51.002;4.096;2023-07-20T21:25:03;17.70;97.50
30385;DHT22;17181;51.002;4.096;2023-07-20T21:27:31;17.60;97.60
30385;DHT22;17181;51.002;4.096;2023-07-20T21:29:59;17.50;97.60
30385;DHT22;17181;51.002;4.096;2023-07-20T21:32:26;17.50;97.60
30385;DHT22;17181;51.002;4.096;2023-07-20T21:34:52;17.50;97.60
30385;DHT22;17181;51.002;4.096;2023-07-20T21:37:20;17.40;97.80
30385;DHT22;17181;51.002;4.096;2023-07-20T21:39:46;17.50;97.90